KWRI/WRI METAR and TAF weather

Enter ICAO airport designator
Station Type Date Time Source
KWRI METAR 2021/05/15 01:56 UTC NOAA

KWRI 150156Z AUTO 20005KT 10SM CLR 13/01 A3022 RMK AO2 SLP233 T01280012


Station Type Date Time Source
KWRI Decoded METAR 2021/05/15 01:56 UTC NOAA

Mcguire Air Force Base, NJ, United States (KWRI) 40-01N 074-36W
May 14, 2021 - 09:56 PM EDT / 2021.05.15 0156 UTC
Wind: from the SSW (200 degrees) at 6 MPH (5 KT):0
Visibility: 10 mile(s):0
Sky conditions: clear
Temperature: 55.0 F (12.8 C)
Dew Point: 34.2 F (1.2 C)
Relative Humidity: 45%
Pressure (altimeter): 30.22 in. Hg (1023 hPa)
ob: KWRI 150156Z AUTO 20005KT 10SM CLR 13/01 A3022 RMK AO2 SLP233 T01280012
cycle: 2

Station Type Date Time Source
KWRI TAF 2021/05/14 18:03 UTC NOAA

TAF KWRI 141800Z 1418/1524 01009KT 9999 SCT060 SCT180 QNH3019INS
BECMG 1501/1502 VRB04KT 9999 FEW060 SCT180 QNH3021INS
BECMG 1515/1516 34009KT 9999 SCT060 BKN080 QNH3025INS TX24/1419Z TN05/1510Z

Example: see airport list